Time;durP1;ratioP1;P1;durP2;ratioP2;P2;SDS_P1;SDS_P2;PMS_P1;PMS_P2;Temp;Humidity;BMP_temperature;BMP_pressure;BME280_temperature;BME280_humidity;BME280_pressure;Samples;Min_cycle;Max_cycle;Signal;HPM_P1;HPM_P2
2022/08/08 00:00:56;;;;;;;;;;;19.70;45.70;;;;;;5141667;27;19937;-46
2022/08/08 00:03:42;;;;;;;;;;;20.80;45.00;;;;;;5128447;27;19931;-49
2022/08/08 00:06:13;;;;;;;;;;;21.80;42.60;;;;;;5144977;27;19930;-45
2022/08/08 00:08:50;;;;;;;;;;;20.80;44.30;;;;;;5127203;27;20329;-47
2022/08/08 00:11:25;;;;;;;;;;;20.30;44.90;;;;;;5149562;27;20026;-45
2022/08/08 00:14:00;;;;;;;;;;;19.90;45.50;;;;;;5145180;27;19949;-45
2022/08/08 00:16:45;;;;;;;;;;;19.80;45.60;;;;;;5120417;27;19934;-52
2022/08/08 00:19:19;;;;;;;;;;;20.80;45.00;;;;;;5151181;27;19940;-44
2022/08/08 00:22:04;;;;;;;;;;;21.80;42.50;;;;;;5126815;27;20130;-46
2022/08/08 00:24:35;;;;;;;;;;;20.60;44.60;;;;;;5145372;27;19975;-45
2022/08/08 00:27:05;;;;;;;;;;;20.10;45.10;;;;;;5132506;27;19927;-45
2022/08/08 00:29:39;;;;;;;;;;;19.70;45.60;;;;;;5125699;27;20386;-47
2022/08/08 00:32:08;;;;;;;;;;;20.40;45.70;;;;;;5145038;27;19923;-45
2022/08/08 00:37:37;;;;;;;;;;;21.10;43.80;;;;;;5146619;27;20057;-47
2022/08/08 00:40:03;;;;;;;;;;;20.40;44.70;;;;;;5145206;27;20006;-45
2022/08/08 00:42:49;;;;;;;;;;;19.90;45.20;;;;;;5150622;27;20384;-45
2022/08/08 00:45:27;;;;;;;;;;;19.90;45.90;;;;;;5117599;27;19926;-47
2022/08/08 00:48:09;;;;;;;;;;;21.00;44.50;;;;;;5143539;27;20133;-46
2022/08/08 00:50:41;;;;;;;;;;;21.80;42.50;;;;;;5126098;27;19971;-47
2022/08/08 00:53:16;;;;;;;;;;;20.60;44.60;;;;;;5150260;27;20405;-45
2022/08/08 00:55:51;;;;;;;;;;;20.00;45.30;;;;;;5123533;27;19947;-45
2022/08/08 00:58:27;;;;;;;;;;;19.70;45.50;;;;;;5145091;27;20204;-52
2022/08/08 01:00:56;;;;;;;;;;;20.10;46.20;;;;;;5131910;27;20362;-46
2022/08/08 01:03:28;;;;;;;;;;;21.40;43.70;;;;;;5122445;27;19972;-46
2022/08/08 01:05:53;;;;;;;;;;;21.30;43.10;;;;;;5128075;27;19923;-56
2022/08/08 01:08:31;;;;;;;;;;;20.40;44.80;;;;;;5146328;27;20318;-46
2022/08/08 01:11:06;;;;;;;;;;;19.80;45.60;;;;;;5144401;27;19945;-44
2022/08/08 01:13:31;;;;;;;;;;;19.70;45.60;;;;;;5131664;27;20267;-45
2022/08/08 01:16:17;;;;;;;;;;;20.20;46.20;;;;;;5143667;27;19935;-45
2022/08/08 01:19:01;;;;;;;;;;;21.50;43.50;;;;;;5125880;27;19923;-46
2022/08/08 01:21:38;;;;;;;;;;;21.00;43.90;;;;;;5143878;27;20014;-52
2022/08/08 01:24:34;;;;;;;;;;;20.30;45.20;;;;;;5130034;27;19994;-45
2022/08/08 01:27:13;;;;;;;;;;;20.00;45.40;;;;;;5129789;27;20030;-47
2022/08/08 01:29:44;;;;;;;;;;;19.60;45.70;;;;;;5108710;27;19923;-47
2022/08/08 01:32:29;;;;;;;;;;;20.60;45.40;;;;;;5131363;27;19975;-47
2022/08/08 01:35:13;;;;;;;;;;;21.80;42.80;;;;;;5144333;27;20312;-46
2022/08/08 01:37:58;;;;;;;;;;;20.80;44.10;;;;;;5144081;27;19927;-44
2022/08/08 01:40:30;;;;;;;;;;;20.20;45.10;;;;;;5149381;27;19970;-46
2022/08/08 01:43:03;;;;;;;;;;;19.80;45.30;;;;;;5142577;27;20017;-44
2022/08/08 01:45:48;;;;;;;;;;;19.60;46.10;;;;;;5124705;27;19923;-47
2022/08/08 01:48:17;;;;;;;;;;;20.70;45.10;;;;;;5149398;27;19933;-48
2022/08/08 01:51:02;;;;;;;;;;;21.80;42.50;;;;;;5143964;27;19924;-46
2022/08/08 01:53:33;;;;;;;;;;;20.60;44.60;;;;;;5143845;27;20221;-45
2022/08/08 01:56:16;;;;;;;;;;;20.00;45.40;;;;;;5149116;27;19934;-46
2022/08/08 01:58:54;;;;;;;;;;;19.80;45.50;;;;;;5128478;27;19923;-46
2022/08/08 02:01:22;;;;;;;;;;;20.30;45.90;;;;;;5142018;27;19927;-50
2022/08/08 02:03:48;;;;;;;;;;;21.50;43.20;;;;;;5148479;27;20366;-49
2022/08/08 02:06:17;;;;;;;;;;;21.30;43.10;;;;;;5143504;27;19975;-45
2022/08/08 02:08:58;;;;;;;;;;;20.30;44.90;;;;;;5143424;27;19966;-46
2022/08/08 02:11:41;;;;;;;;;;;19.80;45.40;;;;;;5149031;27;19923;-47
2022/08/08 02:14:27;;;;;;;;;;;19.90;44.90;;;;;;5126752;27;20010;-46
2022/08/08 02:17:11;;;;;;;;;;;20.40;45.50;;;;;;5142762;27;19923;-45
2022/08/08 02:19:46;;;;;;;;;;;21.60;42.80;;;;;;5141775;27;19929;-46
2022/08/08 02:22:31;;;;;;;;;;;20.80;44.10;;;;;;5148197;27;20366;-46
2022/08/08 02:25:03;;;;;;;;;;;20.00;45.20;;;;;;5126420;27;20394;-46
2022/08/08 02:27:38;;;;;;;;;;;19.70;45.60;;;;;;5142543;27;19923;-46
2022/08/08 02:30:05;;;;;;;;;;;20.10;46.00;;;;;;5129977;27;20380;-47
2022/08/08 02:32:50;;;;;;;;;;;21.50;43.10;;;;;;5143037;27;19949;-47
2022/08/08 02:35:34;;;;;;;;;;;21.00;43.80;;;;;;5142697;27;20151;-46
2022/08/08 02:38:09;;;;;;;;;;;20.20;45.20;;;;;;5146487;27;19937;-47
2022/08/08 02:40:36;;;;;;;;;;;19.80;45.30;;;;;;5142321;27;19973;-45
2022/08/08 02:43:14;;;;;;;;;;;20.20;45.90;;;;;;5142658;27;20155;-46
2022/08/08 02:45:46;;;;;;;;;;;21.40;43.30;;;;;;5148243;27;19926;-46
2022/08/08 02:48:22;;;;;;;;;;;21.10;43.60;;;;;;5142617;27;19923;-45
2022/08/08 02:50:56;;;;;;;;;;;20.30;44.90;;;;;;5142803;27;20346;-46
2022/08/08 02:53:36;;;;;;;;;;;19.90;45.20;;;;;;5129299;27;19929;-47
2022/08/08 02:56:02;;;;;;;;;;;19.60;45.50;;;;;;5122550;27;19929;-48
2022/08/08 02:58:37;;;;;;;;;;;20.30;45.60;;;;;;5142004;27;20147;-47
2022/08/08 03:01:08;;;;;;;;;;;21.30;43.50;;;;;;5147808;27;19933;-46
2022/08/08 03:03:43;;;;;;;;;;;21.10;43.60;;;;;;5142493;27;19923;-46
2022/08/08 03:06:12;;;;;;;;;;;20.30;45.00;;;;;;5142311;27;20049;-46
2022/08/08 03:08:57;;;;;;;;;;;19.80;45.30;;;;;;5147573;27;20030;-48
2022/08/08 03:11:39;;;;;;;;;;;19.80;45.60;;;;;;5142280;27;19929;-47
2022/08/08 03:14:23;;;;;;;;;;;20.90;44.60;;;;;;5110363;27;20006;-47
2022/08/08 03:17:02;;;;;;;;;;;21.80;42.40;;;;;;5146876;27;20331;-46
2022/08/08 03:19:47;;;;;;;;;;;20.50;44.80;;;;;;5123541;27;20378;-46
2022/08/08 03:22:13;;;;;;;;;;;19.90;45.30;;;;;;5142095;27;19976;-46
2022/08/08 03:24:38;;;;;;;;;;;19.70;45.30;;;;;;5147554;27;20013;-48
2022/08/08 03:27:24;;;;;;;;;;;20.30;45.60;;;;;;5142175;27;20110;-46
2022/08/08 03:29:55;;;;;;;;;;;21.50;43.20;;;;;;5141481;27;19927;-46
2022/08/08 03:35:05;;;;;;;;;;;20.20;45.10;;;;;;5125423;27;19923;-43
2022/08/08 03:37:33;;;;;;;;;;;19.70;45.50;;;;;;5141854;27;19926;-45
2022/08/08 03:40:00;;;;;;;;;;;19.80;46.10;;;;;;5147140;27;20346;-46
2022/08/08 03:42:25;;;;;;;;;;;21.00;44.40;;;;;;5141961;27;19931;-44
2022/08/08 03:44:51;;;;;;;;;;;21.80;42.40;;;;;;5141907;27;19927;-48
2022/08/08 03:47:21;;;;;;;;;;;20.50;44.50;;;;;;5147149;27;19927;-46
2022/08/08 03:49:47;;;;;;;;;;;20.10;45.10;;;;;;5141191;27;19945;-48
2022/08/08 03:52:13;;;;;;;;;;;19.80;45.30;;;;;;5145767;27;20006;-44
2022/08/08 03:54:40;;;;;;;;;;;19.80;46.20;;;;;;5141315;27;19927;-46
2022/08/08 03:57:13;;;;;;;;;;;20.90;44.80;;;;;;5141802;27;19975;-45
2022/08/08 03:59:39;;;;;;;;;;;21.80;42.60;;;;;;5147305;27;20025;-46
2022/08/08 04:02:17;;;;;;;;;;;20.50;44.80;;;;;;5141576;27;19946;-44
2022/08/08 04:04:42;;;;;;;;;;;20.00;45.40;;;;;;5141629;27;19931;-48
2022/08/08 04:07:08;;;;;;;;;;;19.80;45.50;;;;;;5147081;27;19923;-46
2022/08/08 04:09:34;;;;;;;;;;;19.70;46.60;;;;;;5140270;27;19972;-50
2022/08/08 04:12:00;;;;;;;;;;;20.70;45.40;;;;;;5141116;27;20191;-45
2022/08/08 04:14:26;;;;;;;;;;;21.80;43.00;;;;;;5146627;27;19923;-45
2022/08/08 04:16:52;;;;;;;;;;;20.70;44.70;;;;;;5141773;27;20026;-46
2022/08/08 04:19:17;;;;;;;;;;;20.10;45.40;;;;;;5146851;27;19937;-46
2022/08/08 04:21:43;;;;;;;;;;;19.80;45.50;;;;;;5141215;27;19938;-47
2022/08/08 04:24:09;;;;;;;;;;;19.80;46.80;;;;;;5141426;27;19968;-45
2022/08/08 04:26:35;;;;;;;;;;;21.00;45.00;;;;;;5121231;27;19923;-47
2022/08/08 04:29:01;;;;;;;;;;;21.80;43.10;;;;;;5140259;27;19943;-47
2022/08/08 04:31:26;;;;;;;;;;;20.50;45.00;;;;;;5141167;27;20167;-45
2022/08/08 04:33:52;;;;;;;;;;;20.10;45.80;;;;;;5146813;27;20026;-45
2022/08/08 04:36:18;;;;;;;;;;;19.80;45.60;;;;;;5141447;27;19934;-48
2022/08/08 04:38:44;;;;;;;;;;;19.90;46.80;;;;;;5146252;27;19934;-55
2022/08/08 04:41:09;;;;;;;;;;;21.00;45.00;;;;;;5142123;27;19923;-47
2022/08/08 04:43:35;;;;;;;;;;;21.60;43.50;;;;;;5141106;27;20359;-45
2022/08/08 04:46:01;;;;;;;;;;;20.40;45.50;;;;;;5145185;27;20324;-48
2022/08/08 04:48:27;;;;;;;;;;;19.90;45.90;;;;;;5140205;27;20009;-44
2022/08/08 04:50:52;;;;;;;;;;;19.60;46.00;;;;;;5141323;27;20511;-48
2022/08/08 04:53:18;;;;;;;;;;;20.10;47.00;;;;;;5150599;27;20344;-49
2022/08/08 04:55:44;;;;;;;;;;;21.40;44.30;;;;;;5145176;27;19930;-46
2022/08/08 04:58:13;;;;;;;;;;;21.30;43.90;;;;;;5147708;27;19923;-53
2022/08/08 05:00:39;;;;;;;;;;;20.30;45.50;;;;;;5148520;27;19927;-45
2022/08/08 05:03:05;;;;;;;;;;;19.90;45.80;;;;;;5144123;27;19937;-46
2022/08/08 05:05:31;;;;;;;;;;;19.70;45.90;;;;;;5148705;27;19927;-46
2022/08/08 05:07:57;;;;;;;;;;;20.40;46.30;;;;;;5144277;27;20443;-48
2022/08/08 05:10:24;;;;;;;;;;;21.70;43.70;;;;;;5144672;27;20360;-53
2022/08/08 05:12:49;;;;;;;;;;;20.90;44.50;;;;;;5150248;27;20640;-49
2022/08/08 05:15:15;;;;;;;;;;;20.20;45.70;;;;;;5144506;27;19923;-45
2022/08/08 05:17:41;;;;;;;;;;;19.90;45.80;;;;;;5144145;27;20319;-44
2022/08/08 05:20:07;;;;;;;;;;;19.60;46.10;;;;;;5149722;27;19952;-46
2022/08/08 05:22:33;;;;;;;;;;;20.20;46.60;;;;;;5142947;27;19927;-46
2022/08/08 05:24:59;;;;;;;;;;;21.30;44.40;;;;;;5148799;27;19931;-46
2022/08/08 05:27:25;;;;;;;;;;;21.30;43.80;;;;;;5144152;27;20057;-44
2022/08/08 05:29:51;;;;;;;;;;;20.30;45.60;;;;;;5144403;27;19927;-45
2022/08/08 05:32:16;;;;;;;;;;;20.10;45.50;;;;;;5149903;27;19923;-44
2022/08/08 05:34:46;;;;;;;;;;;19.80;46.20;;;;;;5144290;27;19928;-47
2022/08/08 05:37:14;;;;;;;;;;;20.70;45.80;;;;;;5144140;27;20109;-46
2022/08/08 05:39:40;;;;;;;;;;;21.80;43.40;;;;;;5130828;27;19922;-45
2022/08/08 05:42:06;;;;;;;;;;;20.70;45.00;;;;;;5142741;27;19927;-44
2022/08/08 05:44:32;;;;;;;;;;;20.00;45.80;;;;;;5130153;27;19927;-52
2022/08/08 05:46:58;;;;;;;;;;;19.80;46.00;;;;;;5125955;27;20430;-45
2022/08/08 05:49:24;;;;;;;;;;;19.80;46.80;;;;;;5144165;27;19923;-46
2022/08/08 05:51:49;;;;;;;;;;;20.80;45.70;;;;;;5149523;27;20498;-45
2022/08/08 05:54:16;;;;;;;;;;;21.80;43.40;;;;;;5143916;27;20272;-45
2022/08/08 05:56:42;;;;;;;;;;;20.60;45.20;;;;;;5118269;27;19929;-46
2022/08/08 05:59:10;;;;;;;;;;;20.10;46.10;;;;;;5147832;27;19923;-46
2022/08/08 06:01:36;;;;;;;;;;;19.70;46.20;;;;;;5118456;27;19923;-48
2022/08/08 06:04:02;;;;;;;;;;;20.10;46.20;;;;;;5144639;27;20359;-51
2022/08/08 06:06:31;;;;;;;;;;;21.00;45.60;;;;;;5148174;27;19940;-47
2022/08/08 06:08:58;;;;;;;;;;;21.70;43.60;;;;;;5125228;27;19939;-45
2022/08/08 06:11:25;;;;;;;;;;;20.70;45.40;;;;;;5142113;27;19976;-46
2022/08/08 06:13:51;;;;;;;;;;;20.20;45.50;;;;;;5143238;27;20363;-45
2022/08/08 06:16:17;;;;;;;;;;;19.90;46.10;;;;;;5143276;27;19926;-44
2022/08/08 06:18:43;;;;;;;;;;;19.60;46.20;;;;;;5147366;27;19984;-45
2022/08/08 06:21:08;;;;;;;;;;;20.40;46.80;;;;;;5142621;27;19923;-48
2022/08/08 06:23:34;;;;;;;;;;;21.50;44.60;;;;;;5143018;27;19987;-45
2022/08/08 06:26:01;;;;;;;;;;;21.30;44.50;;;;;;5148686;27;19927;-46
2022/08/08 06:28:34;;;;;;;;;;;20.50;46.00;;;;;;5143125;27;19927;-45
2022/08/08 06:31:00;;;;;;;;;;;20.20;46.20;;;;;;5147824;27;19932;-56
2022/08/08 06:33:30;;;;;;;;;;;19.70;46.80;;;;;;5143917;27;19927;-46
2022/08/08 06:35:56;;;;;;;;;;;20.00;47.60;;;;;;5142024;27;19923;-49
2022/08/08 06:38:22;;;;;;;;;;;21.30;45.70;;;;;;5147462;27;20306;-45
2022/08/08 06:40:48;;;;;;;;;;;21.50;44.50;;;;;;5142596;27;19929;-46
2022/08/08 06:43:14;;;;;;;;;;;20.50;46.30;;;;;;5142706;27;19923;-44
2022/08/08 06:45:40;;;;;;;;;;;20.20;46.20;;;;;;5148191;27;19986;-45
2022/08/08 06:48:06;;;;;;;;;;;19.90;46.50;;;;;;5124118;27;19923;-45
2022/08/08 06:50:32;;;;;;;;;;;19.70;47.40;;;;;;5142861;27;19923;-51
2022/08/08 06:53:01;;;;;;;;;;;20.80;46.90;;;;;;5128221;27;19924;-47
2022/08/08 06:55:27;;;;;;;;;;;21.80;44.80;;;;;;5140977;27;19927;-47
2022/08/08 06:57:53;;;;;;;;;;;20.80;46.20;;;;;;5147545;27;19927;-45
2022/08/08 07:00:18;;;;;;;;;;;20.30;46.90;;;;;;5142270;27;19983;-46
2022/08/08 07:02:45;;;;;;;;;;;20.10;46.90;;;;;;5142672;27;19923;-46
2022/08/08 07:05:14;;;;;;;;;;;19.80;46.80;;;;;;5147750;27;20000;-45
2022/08/08 07:07:39;;;;;;;;;;;19.80;46.70;;;;;;5142287;27;21590;-44
2022/08/08 07:10:06;;;;;;;;;;;20.60;47.80;;;;;;5142095;27;20303;-45
2022/08/08 07:12:38;;;;;;;;;;;21.70;45.60;;;;;;5146366;27;20313;-45
2022/08/08 07:15:05;;;;;;;;;;;21.30;45.90;;;;;;5140707;27;20434;-47
2022/08/08 07:17:33;;;;;;;;;;;20.30;47.20;;;;;;5145415;27;20056;-52
2022/08/08 07:20:06;;;;;;;;;;;20.20;47.20;;;;;;5127272;27;20071;-45
2022/08/08 07:22:36;;;;;;;;;;;19.80;47.30;;;;;;5142088;27;19927;-45
2022/08/08 07:25:03;;;;;;;;;;;19.70;47.30;;;;;;5147319;27;19924;-46
2022/08/08 07:27:33;;;;;;;;;;;20.70;48.40;;;;;;5142190;27;19933;-45
2022/08/08 07:29:58;;;;;;;;;;;21.80;46.20;;;;;;5117536;27;19927;-46
2022/08/08 07:32:24;;;;;;;;;;;21.20;46.60;;;;;;5127544;27;19927;-47
2022/08/08 07:34:50;;;;;;;;;;;20.50;47.30;;;;;;5141581;27;20250;-47
2022/08/08 07:37:17;;;;;;;;;;;20.00;47.90;;;;;;5141906;27;20367;-48
2022/08/08 07:39:43;;;;;;;;;;;20.10;47.40;;;;;;5147462;27;19923;-46
2022/08/08 07:42:09;;;;;;;;;;;19.80;47.70;;;;;;5141872;27;19934;-45
2022/08/08 07:44:35;;;;;;;;;;;20.10;49.10;;;;;;5124400;27;21972;-54
2022/08/08 07:47:01;;;;;;;;;;;21.30;47.90;;;;;;5143928;27;19930;-47
2022/08/08 07:49:27;;;;;;;;;;;21.70;46.60;;;;;;5140854;27;20223;-48
2022/08/08 07:51:53;;;;;;;;;;;20.80;47.40;;;;;;5146533;27;19959;-47
2022/08/08 07:54:22;;;;;;;;;;;20.40;47.80;;;;;;5117821;27;20294;-45
2022/08/08 07:56:49;;;;;;;;;;;20.10;48.10;;;;;;5141715;27;19939;-47
2022/08/08 07:59:14;;;;;;;;;;;20.00;47.60;;;;;;5129094;27;19930;-44
2022/08/08 08:01:48;;;;;;;;;;;19.80;47.50;;;;;;5141480;27;20313;-45
2022/08/08 08:04:14;;;;;;;;;;;20.10;49.50;;;;;;5123059;27;20425;-45
2022/08/08 08:06:39;;;;;;;;;;;21.30;48.60;;;;;;5146317;27;19927;-46
2022/08/08 08:09:08;;;;;;;;;;;21.80;47.00;;;;;;5140100;27;20385;-45
2022/08/08 08:11:34;;;;;;;;;;;20.90;48.20;;;;;;5146561;27;19929;-46
2022/08/08 08:14:07;;;;;;;;;;;20.40;48.40;;;;;;5122912;27;19927;-45
2022/08/08 08:16:33;;;;;;;;;;;20.00;48.60;;;;;;5141611;27;19923;-47
2022/08/08 08:19:00;;;;;;;;;;;20.00;48.00;;;;;;5147046;27;19927;-45
2022/08/08 08:21:29;;;;;;;;;;;19.80;47.90;;;;;;5141335;27;19966;-47
2022/08/08 08:23:55;;;;;;;;;;;20.40;50.20;;;;;;5141270;27;19926;-49
2022/08/08 08:26:21;;;;;;;;;;;21.40;48.80;;;;;;5146636;27;20423;-45
2022/08/08 08:28:47;;;;;;;;;;;21.60;47.80;;;;;;5144647;27;19961;-47
2022/08/08 08:31:13;;;;;;;;;;;20.80;48.50;;;;;;5145110;27;20014;-46
2022/08/08 08:33:39;;;;;;;;;;;20.30;48.60;;;;;;5150704;27;20005;-44
2022/08/08 08:36:08;;;;;;;;;;;20.10;48.60;;;;;;5145478;27;19946;-44
2022/08/08 08:38:36;;;;;;;;;;;20.00;48.30;;;;;;5150705;27;19923;-49
2022/08/08 08:41:02;;;;;;;;;;;19.80;48.20;;;;;;5145061;27;19923;-46
2022/08/08 08:43:28;;;;;;;;;;;20.20;50.30;;;;;;5144707;27;19993;-45
2022/08/08 08:45:56;;;;;;;;;;;21.20;49.80;;;;;;5148902;27;20381;-46
2022/08/08 08:48:22;;;;;;;;;;;21.80;48.10;;;;;;5144337;27;19923;-45
2022/08/08 08:50:48;;;;;;;;;;;20.80;49.00;;;;;;5144861;27;20593;-46
2022/08/08 08:53:14;;;;;;;;;;;20.40;49.10;;;;;;5123314;27;19923;-46
2022/08/08 08:55:41;;;;;;;;;;;20.20;48.80;;;;;;5144924;27;19923;-47
2022/08/08 08:58:06;;;;;;;;;;;19.80;48.90;;;;;;5126882;27;19931;-52
2022/08/08 09:00:33;;;;;;;;;;;20.00;49.30;;;;;;5146471;27;20264;-49
2022/08/08 09:02:59;;;;;;;;;;;20.70;51.20;;;;;;5143628;27;19931;-46
2022/08/08 09:05:25;;;;;;;;;;;21.80;49.10;;;;;;5149194;27;20413;-45
2022/08/08 09:07:52;;;;;;;;;;;21.10;49.00;;;;;;5144520;27;19923;-45
2022/08/08 09:10:18;;;;;;;;;;;20.60;49.10;;;;;;5144646;27;19923;-46
2022/08/08 09:12:45;;;;;;;;;;;20.30;48.80;;;;;;5150194;27;19931;-45
2022/08/08 09:15:10;;;;;;;;;;;20.20;48.90;;;;;;5144129;27;19955;-45
2022/08/08 09:17:36;;;;;;;;;;;19.90;48.60;;;;;;5145137;27;19927;-54
2022/08/08 09:20:02;;;;;;;;;;;19.80;48.50;;;;;;5149184;27;19927;-46
2022/08/08 09:22:28;;;;;;;;;;;20.50;51.10;;;;;;5142672;27;19927;-47
2022/08/08 09:24:54;;;;;;;;;;;21.50;49.70;;;;;;5149171;27;20425;-45
2022/08/08 09:27:20;;;;;;;;;;;21.50;48.60;;;;;;5144451;27;19923;-46
2022/08/08 09:29:49;;;;;;;;;;;20.70;49.50;;;;;;5144336;27;19984;-44
2022/08/08 09:32:34;;;;;;;;;;;20.50;49.00;;;;;;5149600;27;19923;-45
2022/08/08 09:35:00;;;;;;;;;;;20.30;48.80;;;;;;5144138;27;20018;-45
2022/08/08 09:37:27;;;;;;;;;;;20.10;48.70;;;;;;5143515;27;19945;-46
2022/08/08 09:40:01;;;;;;;;;;;20.10;48.20;;;;;;5148323;27;19927;-45
2022/08/08 09:42:30;;;;;;;;;;;19.70;49.80;;;;;;5143232;27;19923;-48
2022/08/08 09:45:02;;;;;;;;;;;20.80;50.90;;;;;;5125153;27;19923;-44
2022/08/08 09:47:29;;;;;;;;;;;21.80;49.30;;;;;;5149645;27;19924;-45
2022/08/08 09:49:56;;;;;;;;;;;21.30;48.90;;;;;;5119747;27;20022;-44
2022/08/08 09:52:23;;;;;;;;;;;20.70;49.00;;;;;;5146348;27;19953;-52
2022/08/08 09:54:48;;;;;;;;;;;20.30;49.00;;;;;;5126036;27;19988;-44
2022/08/08 09:57:17;;;;;;;;;;;20.30;48.50;;;;;;5142909;27;20126;-45
2022/08/08 09:59:43;;;;;;;;;;;20.00;48.60;;;;;;5147775;27;20395;-46
2022/08/08 10:02:18;;;;;;;;;;;20.00;48.10;;;;;;5143123;27;19968;-46
2022/08/08 10:04:44;;;;;;;;;;;19.90;49.00;;;;;;5143381;27;20021;-46
2022/08/08 10:07:11;;;;;;;;;;;20.80;50.60;;;;;;5148989;27;19945;-44
2022/08/08 10:09:37;;;;;;;;;;;21.80;48.60;;;;;;5143189;27;20467;-46
2022/08/08 10:12:03;;;;;;;;;;;21.30;48.70;;;;;;5143281;27;19924;-48
2022/08/08 10:14:36;;;;;;;;;;;20.70;48.70;;;;;;5148631;27;19934;-47
2022/08/08 10:17:05;;;;;;;;;;;20.40;48.90;;;;;;5141602;27;20021;-47
2022/08/08 10:19:38;;;;;;;;;;;20.30;48.50;;;;;;5143819;27;20131;-54
2022/08/08 10:22:04;;;;;;;;;;;20.10;48.40;;;;;;5148318;27;19929;-45
2022/08/08 10:24:30;;;;;;;;;;;19.80;48.50;;;;;;5143363;27;19923;-45
2022/08/08 10:26:58;;;;;;;;;;;20.00;50.50;;;;;;5126009;27;19924;-46
2022/08/08 10:29:51;;;;;;;;;;;21.20;50.10;;;;;;5142917;27;20025;-44
2022/08/08 10:32:36;;;;;;;;;;;21.90;48.10;;;;;;5142781;27;19967;-47
2022/08/08 10:35:04;;;;;;;;;;;21.00;48.70;;;;;;5141819;27;20031;-51
2022/08/08 10:37:31;;;;;;;;;;;20.60;48.80;;;;;;5147451;27;19934;-45
2022/08/08 10:39:57;;;;;;;;;;;20.30;48.80;;;;;;5142502;27;20013;-45
2022/08/08 10:42:24;;;;;;;;;;;20.00;48.60;;;;;;5148335;27;20017;-45
2022/08/08 10:44:51;;;;;;;;;;;20.00;48.40;;;;;;5142841;27;19922;-45
2022/08/08 10:47:18;;;;;;;;;;;20.00;48.10;;;;;;5123706;27;19926;-45
2022/08/08 10:49:50;;;;;;;;;;;20.60;50.70;;;;;;5146903;27;19927;-45
2022/08/08 10:52:26;;;;;;;;;;;21.60;49.20;;;;;;5141927;27;19954;-47
2022/08/08 10:54:52;;;;;;;;;;;21.50;48.60;;;;;;5141129;27;20022;-45
2022/08/08 10:57:18;;;;;;;;;;;20.50;49.60;;;;;;5147602;27;19991;-45
2022/08/08 10:59:49;;;;;;;;;;;20.40;48.80;;;;;;5138497;27;19923;-45
2022/08/08 11:02:21;;;;;;;;;;;20.20;48.80;;;;;;5111561;27;20304;-44
2022/08/08 11:04:46;;;;;;;;;;;20.10;48.50;;;;;;5147733;27;19955;-49
2022/08/08 11:07:22;;;;;;;;;;;19.80;48.70;;;;;;5142177;27;20317;-46
2022/08/08 11:09:48;;;;;;;;;;;19.80;48.40;;;;;;5144591;27;20267;-56
2022/08/08 11:12:14;;;;;;;;;;;20.70;50.70;;;;;;5144198;27;19990;-46
2022/08/08 11:14:47;;;;;;;;;;;21.70;49.10;;;;;;5141216;27;19931;-46
2022/08/08 11:17:12;;;;;;;;;;;21.50;48.50;;;;;;5147238;27;19927;-45
2022/08/08 11:19:38;;;;;;;;;;;20.70;49.20;;;;;;5142146;27;19932;-45
2022/08/08 11:22:04;;;;;;;;;;;20.30;49.10;;;;;;5142041;27;19923;-47
2022/08/08 11:24:30;;;;;;;;;;;20.20;48.70;;;;;;5147262;27;19927;-44
2022/08/08 11:26:56;;;;;;;;;;;20.00;48.50;;;;;;5141732;27;19927;-45
2022/08/08 11:29:22;;;;;;;;;;;19.80;48.50;;;;;;5141032;27;19927;-45
2022/08/08 11:31:48;;;;;;;;;;;19.90;48.00;;;;;;5146163;27;20281;-46
2022/08/08 11:34:13;;;;;;;;;;;20.30;50.40;;;;;;5141663;27;19927;-47
2022/08/08 11:36:39;;;;;;;;;;;21.30;49.40;;;;;;5147390;27;19923;-45
2022/08/08 11:39:06;;;;;;;;;;;21.80;47.80;;;;;;5113442;27;19923;-45
2022/08/08 11:41:34;;;;;;;;;;;20.90;48.50;;;;;;5141918;27;19924;-44
2022/08/08 11:44:00;;;;;;;;;;;20.50;48.50;;;;;;5147410;27;19923;-45
2022/08/08 11:46:26;;;;;;;;;;;20.00;49.10;;;;;;5141624;27;19923;-44
2022/08/08 11:48:52;;;;;;;;;;;20.00;48.40;;;;;;5140314;27;19930;-48
2022/08/08 11:51:19;;;;;;;;;;;20.20;47.50;;;;;;5146525;27;19967;-46
2022/08/08 11:53:45;;;;;;;;;;;19.80;48.10;;;;;;5141467;27;20393;-45
2022/08/08 11:56:17;;;;;;;;;;;20.70;49.80;;;;;;5122262;27;19923;-55
2022/08/08 11:58:43;;;;;;;;;;;21.80;48.00;;;;;;5146206;27;19930;-45
2022/08/08 12:01:09;;;;;;;;;;;21.40;47.50;;;;;;5144124;27;19923;-44
2022/08/08 12:03:35;;;;;;;;;;;20.80;48.30;;;;;;5151205;27;19979;-44
2022/08/08 12:06:11;;;;;;;;;;;20.60;48.00;;;;;;5144976;27;20388;-46
2022/08/08 12:08:36;;;;;;;;;;;20.10;48.10;;;;;;5144581;27;19941;-48
2022/08/08 12:11:03;;;;;;;;;;;20.10;47.90;;;;;;5150957;27;20433;-46
2022/08/08 12:13:29;;;;;;;;;;;19.90;47.70;;;;;;5145853;27;19933;-44
2022/08/08 12:16:04;;;;;;;;;;;19.80;47.80;;;;;;5145911;27;19962;-46
2022/08/08 12:18:31;;;;;;;;;;;20.60;49.70;;;;;;5151074;27;19923;-45
2022/08/08 12:20:57;;;;;;;;;;;21.80;47.60;;;;;;5145620;27;20006;-45
2022/08/08 12:23:26;;;;;;;;;;;21.40;47.50;;;;;;5122520;27;19976;-53
2022/08/08 12:25:52;;;;;;;;;;;20.80;48.20;;;;;;5149434;27;19923;-48
2022/08/08 12:28:18;;;;;;;;;;;20.50;48.00;;;;;;5144903;27;19962;-45
2022/08/08 12:30:44;;;;;;;;;;;20.20;48.10;;;;;;5150550;27;19930;-45
2022/08/08 12:33:17;;;;;;;;;;;20.30;47.30;;;;;;5145380;27;20022;-48
2022/08/08 12:35:43;;;;;;;;;;;20.20;47.30;;;;;;5145499;27;20397;-44
2022/08/08 12:38:11;;;;;;;;;;;20.00;47.20;;;;;;5150526;27;20021;-45
2022/08/08 12:40:43;;;;;;;;;;;20.20;48.30;;;;;;5145135;27;19987;-47
2022/08/08 12:43:09;;;;;;;;;;;21.00;49.00;;;;;;5144126;27;20025;-46
2022/08/08 12:45:36;;;;;;;;;;;22.00;46.60;;;;;;5149456;27;20390;-46
2022/08/08 12:48:02;;;;;;;;;;;21.20;47.50;;;;;;5144666;27;19923;-48
2022/08/08 12:50:39;;;;;;;;;;;20.60;48.00;;;;;;5146649;27;20419;-50
2022/08/08 12:53:15;;;;;;;;;;;20.40;47.80;;;;;;5150623;27;19931;-47
2022/08/08 12:56:11;;;;;;;;;;;20.20;47.80;;;;;;5144834;27;20293;-46
2022/08/08 12:58:46;;;;;;;;;;;20.30;47.00;;;;;;5130969;27;20034;-45
2022/08/08 13:01:12;;;;;;;;;;;20.10;47.20;;;;;;5149504;27;19930;-44
2022/08/08 13:03:45;;;;;;;;;;;20.00;47.10;;;;;;5143514;27;20374;-45
2022/08/08 13:06:15;;;;;;;;;;;20.60;49.20;;;;;;5144389;27;20235;-48
2022/08/08 13:08:41;;;;;;;;;;;21.70;47.40;;;;;;5150053;27;19935;-44
2022/08/08 13:11:32;;;;;;;;;;;21.50;47.00;;;;;;5144380;27;19927;-45
2022/08/08 13:14:07;;;;;;;;;;;20.80;48.00;;;;;;5144248;27;19926;-45
2022/08/08 13:16:33;;;;;;;;;;;20.60;47.70;;;;;;5149769;27;19923;-48
2022/08/08 13:19:06;;;;;;;;;;;20.20;47.90;;;;;;5143988;27;19927;-47
2022/08/08 13:21:45;;;;;;;;;;;20.20;47.50;;;;;;5142808;27;19935;-45
2022/08/08 13:24:11;;;;;;;;;;;20.10;47.10;;;;;;5149119;27;19923;-44
2022/08/08 13:26:37;;;;;;;;;;;20.30;48.90;;;;;;5144152;27;20374;-45
2022/08/08 13:29:09;;;;;;;;;;;21.40;47.90;;;;;;5149531;27;19927;-49
2022/08/08 13:31:35;;;;;;;;;;;21.90;46.20;;;;;;5148097;27;20373;-45
2022/08/08 13:34:01;;;;;;;;;;;21.20;47.00;;;;;;5125840;27;20257;-46
2022/08/08 13:36:27;;;;;;;;;;;20.50;47.70;;;;;;5149526;27;20373;-46
2022/08/08 13:38:53;;;;;;;;;;;20.50;47.10;;;;;;5142578;27;20593;-45
2022/08/08 13:41:19;;;;;;;;;;;20.30;47.30;;;;;;5143357;27;19923;-45
2022/08/08 13:43:45;;;;;;;;;;;20.20;47.30;;;;;;5149335;27;20442;-45
2022/08/08 13:46:11;;;;;;;;;;;20.30;46.80;;;;;;5125586;27;20010;-44
2022/08/08 13:48:46;;;;;;;;;;;20.00;47.10;;;;;;5144063;27;19923;-47
2022/08/08 13:51:12;;;;;;;;;;;20.70;48.60;;;;;;5149128;27;19923;-46
2022/08/08 13:53:39;;;;;;;;;;;21.80;46.60;;;;;;5143753;27;19923;-45
2022/08/08 13:56:07;;;;;;;;;;;21.60;46.30;;;;;;5148699;27;19927;-45
2022/08/08 13:58:33;;;;;;;;;;;20.90;47.20;;;;;;5124433;27;19977;-45
2022/08/08 14:01:15;;;;;;;;;;;20.30;48.10;;;;;;5143052;27;19923;-44
2022/08/08 14:03:49;;;;;;;;;;;20.50;47.10;;;;;;5148885;27;19934;-47
2022/08/08 14:06:15;;;;;;;;;;;20.30;47.30;;;;;;5143616;27;20011;-44
2022/08/08 14:08:44;;;;;;;;;;;20.20;46.90;;;;;;5143430;27;19927;-45
2022/08/08 14:11:11;;;;;;;;;;;20.10;46.90;;;;;;5149011;27;19927;-44
2022/08/08 14:13:38;;;;;;;;;;;20.00;47.30;;;;;;5143265;27;20446;-46
2022/08/08 14:16:04;;;;;;;;;;;20.90;48.20;;;;;;5141634;27;19923;-46
2022/08/08 14:18:30;;;;;;;;;;;21.90;46.30;;;;;;5147995;27;20018;-46
2022/08/08 14:20:59;;;;;;;;;;;21.40;46.60;;;;;;5143087;27;19923;-45
2022/08/08 14:23:25;;;;;;;;;;;20.80;47.00;;;;;;5143677;27;19923;-53
2022/08/08 14:25:54;;;;;;;;;;;20.50;47.50;;;;;;5148425;27;19976;-44
2022/08/08 14:28:20;;;;;;;;;;;20.20;47.40;;;;;;5143042;27;19927;-44
2022/08/08 14:30:46;;;;;;;;;;;20.30;46.80;;;;;;5148361;27;20374;-43
2022/08/08 14:33:12;;;;;;;;;;;20.20;46.70;;;;;;5142053;27;19970;-47
2022/08/08 14:35:38;;;;;;;;;;;20.00;46.90;;;;;;5141902;27;19971;-45